Time;durP1;ratioP1;P1;durP2;ratioP2;P2;SDS_P1;SDS_P2;PMS_P1;PMS_P2;Temp;Humidity;BMP_temperature;BMP_pressure;BME280_temperature;BME280_humidity;BME280_pressure;Samples;Min_cycle;Max_cycle;Signal;HPM_P1;HPM_P2
2021/11/23 00:01:40;;;;;;;;;28.25;26.25;;;;;6.18;58.65;102322.75;5002695;28;45304;-51
2021/11/23 00:04:06;;;;;;;;;40.00;32.50;;;;;6.18;58.75;102318.41;5002442;28;45450;-47
2021/11/23 00:06:34;;;;;;;;;29.00;25.25;;;;;6.16;58.73;102316.59;5002964;28;45320;-49
2021/11/23 00:09:00;;;;;;;;;38.75;26.75;;;;;6.15;58.67;102320.94;5002420;28;45360;-47
2021/11/23 00:11:26;;;;;;;;;30.75;27.50;;;;;6.13;58.84;102311.28;5002681;28;45303;-48
2021/11/23 00:13:51;;;;;;;;;32.75;26.00;;;;;6.08;58.82;102305.06;5002474;28;45221;-50
2021/11/23 00:16:18;;;;;;;;;29.00;27.50;;;;;6.09;58.86;102312.03;5002400;28;45271;-50
2021/11/23 00:18:44;;;;;;;;;27.00;26.25;;;;;6.08;58.82;102308.53;5001615;28;45260;-49
2021/11/23 00:21:09;;;;;;;;;29.75;27.25;;;;;6.08;58.75;102303.31;5001314;28;45411;-49
2021/11/23 00:23:35;;;;;;;;;36.00;26.00;;;;;6.07;58.74;102311.97;5002312;28;45431;-52
2021/11/23 00:26:00;;;;;;;;;32.00;26.25;;;;;6.07;58.67;102308.50;5002356;28;45346;-51
2021/11/23 00:28:26;;;;;;;;;31.00;30.50;;;;;6.06;58.80;102311.94;5002252;28;45331;-51
2021/11/23 00:30:51;;;;;;;;;26.50;25.50;;;;;6.04;58.83;102311.91;5002334;28;45428;-50
2021/11/23 00:33:16;;;;;;;;;32.75;24.50;;;;;6.04;58.96;102311.91;5001896;28;45397;-53
2021/11/23 00:35:43;;;;;;;;;34.00;27.75;;;;;6.03;58.88;102306.66;5002130;28;46020;-48
2021/11/23 00:38:08;;;;;;;;;30.75;27.25;;;;;6.00;58.78;102313.53;5001993;28;45442;-51
2021/11/23 00:40:34;;;;;;;;;28.75;25.75;;;;;5.99;58.86;102306.53;5001899;28;45543;-51
2021/11/23 00:43:04;;;;;;;;;29.75;27.00;;;;;5.99;59.00;102306.53;5002150;28;45303;-50
2021/11/23 00:45:29;;;;;;;;;29.50;26.75;;;;;5.96;58.76;102311.66;5002097;28;46230;-50
2021/11/23 00:47:55;;;;;;;;;25.75;22.75;;;;;5.87;58.94;102295.69;5001578;28;45354;-51
2021/11/23 00:50:20;;;;;;;;;35.50;29.75;;;;;5.94;58.82;102312.44;5002261;28;45364;-48
2021/11/23 00:52:45;;;;;;;;;26.25;24.00;;;;;5.92;58.98;102308.91;5001844;28;45264;-50
2021/11/23 00:55:12;;;;;;;;;25.25;22.50;;;;;5.91;58.73;102308.03;5001897;28;45862;-52
2021/11/23 00:57:37;;;;;;;;;30.50;26.75;;;;;5.88;58.84;102302.69;5001805;28;45338;-52
2021/11/23 01:00:08;;;;;;;;;26.75;22.25;;;;;5.89;58.92;102303.56;5001928;28;45301;-53
2021/11/23 01:02:33;;;;;;;;;24.50;21.00;;;;;5.89;58.97;102306.16;5001485;28;45503;-52
2021/11/23 01:04:59;;;;;;;;;25.75;24.25;;;;;5.88;58.75;102301.81;5001690;28;45561;-52
2021/11/23 01:07:24;;;;;;;;;25.75;22.00;;;;;5.88;59.10;102304.44;5001812;28;45404;-49
2021/11/23 01:09:49;;;;;;;;;27.50;25.00;;;;;5.85;58.89;102300.00;5001778;28;45442;-48
2021/11/23 01:12:15;;;;;;;;;27.50;25.25;;;;;5.83;58.94;102312.97;5001667;28;45328;-51
2021/11/23 01:14:40;;;;;;;;;26.25;23.75;;;;;5.82;59.00;102307.72;5001613;28;46328;-49
2021/11/23 01:17:06;;;;;;;;;31.00;25.75;;;;;5.78;58.97;102309.34;5001368;28;45387;-50
2021/11/23 01:19:31;;;;;;;;;27.75;23.75;;;;;5.78;58.95;102300.66;5001669;28;45513;-51
2021/11/23 01:21:57;;;;;;;;;26.25;23.75;;;;;5.74;58.96;102304.88;5001439;28;45355;-48
2021/11/23 01:24:22;;;;;;;;;27.50;23.75;;;;;5.74;58.92;102307.50;5000128;28;46901;-50
2021/11/23 01:26:47;;;;;;;;;30.75;25.25;;;;;5.73;59.04;102313.53;5001307;28;45373;-51
2021/11/23 01:29:13;;;;;;;;;28.75;22.50;;;;;5.70;59.06;102310.84;5000479;28;45359;-51
2021/11/23 01:31:39;;;;;;;;;30.50;23.75;;;;;5.67;59.12;102310.75;5001118;28;45514;-49
2021/11/23 01:34:05;;;;;;;;;28.00;24.75;;;;;5.66;59.11;102322.91;5001325;28;46025;-50
2021/11/23 01:36:31;;;;;;;;;30.50;27.25;;;;;5.65;59.23;102318.53;5001130;28;45240;-50
2021/11/23 01:38:57;;;;;;;;;27.75;25.25;;;;;5.65;58.98;102320.25;5001322;28;45319;-52
2021/11/23 01:41:23;;;;;;;;;26.00;21.75;;;;;5.64;59.24;102321.09;5001245;28;45215;-51
2021/11/23 01:43:49;;;;;;;;;25.75;22.50;;;;;5.62;59.27;102321.06;5001221;28;47200;-50
2021/11/23 01:46:14;;;;;;;;;24.25;22.00;;;;;5.62;58.88;102322.75;4999853;28;45236;-51
2021/11/23 01:48:40;;;;;;;;;27.75;23.25;;;;;5.62;59.12;102322.75;5001190;28;45282;-49
2021/11/23 01:51:05;;;;;;;;;23.75;19.75;;;;;5.61;59.09;102318.38;5001087;28;45453;-50
2021/11/23 01:53:31;;;;;;;;;28.00;24.50;;;;;5.59;59.10;102317.47;5000931;28;46189;-49
2021/11/23 01:55:57;;;;;;;;;30.75;23.50;;;;;5.56;59.00;102312.13;5000869;28;45246;-52
2021/11/23 01:58:23;;;;;;;;;28.75;26.25;;;;;5.57;59.09;102325.22;5001282;28;45343;-51
2021/11/23 02:00:49;;;;;;;;;27.75;26.50;;;;;5.56;59.14;102318.25;5000492;28;45284;-52
2021/11/23 02:03:15;;;;;;;;;31.50;28.00;;;;;5.56;59.03;102317.34;5000659;28;45352;-51
2021/11/23 02:05:41;;;;;;;;;32.75;25.75;;;;;5.53;59.17;102324.25;5000807;28;45291;-50
2021/11/23 02:08:07;;;;;;;;;20.75;20.50;;;;;5.53;59.11;102325.94;5000926;28;45209;-50
2021/11/23 02:10:33;;;;;;;;;25.00;23.75;;;;;5.51;59.24;102322.44;4982886;28;45222;-49
2021/11/23 02:13:00;;;;;;;;;28.50;27.75;;;;;5.47;59.14;102321.44;5000651;28;45677;-51
2021/11/23 02:15:25;;;;;;;;;24.25;23.00;;;;;5.48;59.07;102322.31;4999550;28;45312;-50
2021/11/23 02:17:51;;;;;;;;;34.00;29.25;;;;;5.48;59.36;102319.72;5000462;28;45281;-52
2021/11/23 02:20:20;;;;;;;;;27.75;24.50;;;;;5.45;59.25;102320.50;5000494;28;45447;-53
2021/11/23 02:22:46;;;;;;;;;34.75;25.25;;;;;5.43;59.11;102319.56;5000531;28;46170;-49
2021/11/23 02:25:13;;;;;;;;;32.50;29.25;;;;;5.45;59.16;102322.22;5000459;28;45305;-51
2021/11/23 02:27:40;;;;;;;;;29.50;26.50;;;;;5.45;59.29;102330.94;5000647;28;45382;-52
2021/11/23 02:30:08;;;;;;;;;34.00;27.25;;;;;5.44;59.00;102326.53;5000544;28;45395;-52
2021/11/23 02:32:41;;;;;;;;;25.75;24.25;;;;;5.44;59.27;102320.47;5000017;28;46295;-50
2021/11/23 02:35:08;;;;;;;;;32.00;24.75;;;;;5.41;59.19;102329.06;5000201;28;45402;-50
2021/11/23 02:37:41;;;;;;;;;30.50;27.25;;;;;5.40;59.09;102322.06;5000454;28;45331;-52
2021/11/23 02:40:07;;;;;;;;;28.25;23.50;;;;;5.41;59.32;102318.63;4999685;28;45468;-51
2021/11/23 02:42:32;;;;;;;;;30.25;27.00;;;;;5.40;59.90;102308.16;5000203;28;46559;-52
2021/11/23 02:44:57;;;;;;;;;32.00;27.25;;;;;5.39;59.42;102309.88;4998805;28;45378;-51
2021/11/23 02:47:23;;;;;;;;;29.50;28.00;;;;;5.38;59.36;102302.88;4999147;28;45305;-51
2021/11/23 02:49:48;;;;;;;;;28.00;24.75;;;;;5.37;59.37;102301.09;5000119;28;45541;-52
2021/11/23 02:52:15;;;;;;;;;27.75;25.75;;;;;5.35;59.38;102300.19;5000065;28;45367;-52
2021/11/23 02:54:53;;;;;;;;;32.50;29.00;;;;;5.35;59.35;102295.84;4999888;28;45182;-52
2021/11/23 02:57:30;;;;;;;;;25.25;23.50;;;;;5.33;59.17;102302.75;5000249;28;45302;-50
2021/11/23 02:59:56;;;;;;;;;26.25;24.75;;;;;5.30;59.25;102300.03;4999879;28;45373;-52
2021/11/23 03:02:22;;;;;;;;;34.25;30.00;;;;;5.29;59.32;102303.47;4999715;28;46134;-51
2021/11/23 03:04:55;;;;;;;;;36.25;34.00;;;;;5.27;59.28;102293.81;4999990;28;45295;-53
2021/11/23 03:07:21;;;;;;;;;27.00;22.75;;;;;5.26;59.38;102299.88;4998915;28;45324;-51
2021/11/23 03:09:47;;;;;;;;;26.25;24.25;;;;;5.25;59.31;102300.72;4999819;28;45483;-51
2021/11/23 03:12:14;;;;;;;;;27.00;24.00;;;;;5.20;59.20;102296.22;4999745;28;46090;-53
2021/11/23 03:14:40;;;;;;;;;29.25;24.75;;;;;5.22;58.96;102296.31;5000024;28;45299;-50
2021/11/23 03:17:05;;;;;;;;;26.25;25.00;;;;;5.20;59.33;102298.84;4999670;28;45250;-49
2021/11/23 03:19:30;;;;;;;;;24.25;21.75;;;;;5.19;59.10;102302.31;4998533;28;45276;-52
2021/11/23 03:21:56;;;;;;;;;29.25;26.25;;;;;5.19;59.34;102298.78;4999671;28;45652;-53
2021/11/23 03:24:22;;;;;;;;;29.00;21.50;;;;;5.19;59.29;102301.41;4999794;28;45440;-52
2021/11/23 03:26:47;;;;;;;;;32.75;25.75;;;;;5.18;59.38;102299.63;4999852;28;45165;-47
2021/11/23 03:29:12;;;;;;;;;33.50;30.75;;;;;5.18;59.48;102305.75;4999821;28;45394;-52
2021/11/23 03:31:38;;;;;;;;;28.25;24.00;;;;;5.15;59.30;102289.97;4999459;28;46081;-48
2021/11/23 03:34:03;;;;;;;;;24.00;22.00;;;;;5.16;59.37;102293.50;4998330;28;45276;-51
2021/11/23 03:36:28;;;;;;;;;27.25;25.75;;;;;5.15;59.20;102297.78;4999919;28;45429;-49
2021/11/23 03:38:54;;;;;;;;;33.00;29.00;;;;;5.14;59.51;102293.41;4999449;28;45235;-49
2021/11/23 03:41:19;;;;;;;;;32.00;29.00;;;;;5.14;59.52;102295.16;4998315;28;46057;-50
2021/11/23 03:43:44;;;;;;;;;26.75;23.75;;;;;5.15;59.12;102302.13;4999562;28;45529;-52
2021/11/23 03:46:10;;;;;;;;;29.50;25.25;;;;;5.14;59.31;102297.75;4999730;28;45367;-50
2021/11/23 03:48:35;;;;;;;;;32.50;27.50;;;;;5.14;59.37;102290.81;4999294;28;45398;-51
2021/11/23 03:51:00;;;;;;;;;27.25;25.00;;;;;5.14;59.15;102303.84;4999455;28;45409;-53
2021/11/23 03:53:26;;;;;;;;;33.25;28.00;;;;;5.12;59.31;102292.50;5001855;28;45395;-51
2021/11/23 03:55:52;;;;;;;;;34.00;25.75;;;;;5.13;59.57;102294.28;5002944;28;45351;-52
2021/11/23 03:58:17;;;;;;;;;25.50;23.25;;;;;5.12;59.21;102289.00;5002776;28;45264;-51
2021/11/23 04:00:43;;;;;;;;;32.75;27.75;;;;;5.11;59.28;102282.03;5002511;28;45463;-52
2021/11/23 04:03:08;;;;;;;;;33.50;28.25;;;;;5.08;59.41;102281.91;5002252;28;45315;-52
2021/11/23 04:05:34;;;;;;;;;25.75;25.00;;;;;5.11;59.42;102290.72;5002877;28;45343;-52
2021/11/23 04:07:59;;;;;;;;;23.50;23.25;;;;;5.05;59.39;102283.56;5002694;28;45416;-48
2021/11/23 04:10:25;;;;;;;;;27.50;26.75;;;;;5.08;59.30;102282.81;5002348;28;46105;-50
2021/11/23 04:12:51;;;;;;;;;26.25;24.25;;;;;5.07;59.25;102286.25;5002356;28;45310;-52
2021/11/23 04:15:17;;;;;;;;;24.25;22.00;;;;;5.04;59.27;102289.66;5002639;28;45426;-51
2021/11/23 04:17:43;;;;;;;;;28.00;25.00;;;;;5.04;59.18;102296.56;5002132;28;45198;-47
2021/11/23 04:20:10;;;;;;;;;27.75;23.00;;;;;5.03;59.49;102294.78;5002419;28;46391;-52
2021/11/23 04:22:38;;;;;;;;;27.50;23.00;;;;;5.03;59.55;102300.00;5002413;28;45293;-52
2021/11/23 04:25:04;;;;;;;;;25.50;23.25;;;;;5.00;59.10;102295.56;5002380;28;45381;-52
2021/11/23 04:27:30;;;;;;;;;31.25;28.25;;;;;4.99;59.18;102293.81;5002336;28;45609;-48
2021/11/23 04:29:55;;;;;;;;;28.00;23.25;;;;;5.00;59.38;102298.16;5002285;28;45304;-51
2021/11/23 04:32:21;;;;;;;;;29.00;23.75;;;;;4.99;59.20;102292.91;5001984;28;45253;-50
2021/11/23 04:34:46;;;;;;;;;26.75;25.00;;;;;4.99;59.09;102301.63;5002637;28;45207;-52
2021/11/23 04:37:11;;;;;;;;;28.00;23.50;;;;;4.97;59.34;102295.47;5002277;28;45170;-51
2021/11/23 04:39:37;;;;;;;;;27.75;25.25;;;;;4.97;59.35;102299.78;5002009;28;47052;-51
2021/11/23 04:42:02;;;;;;;;;23.00;19.00;;;;;4.97;59.46;102295.47;5002101;28;45226;-48
2021/11/23 04:44:28;;;;;;;;;24.50;22.75;;;;;4.92;59.19;102288.31;5002601;28;45209;-48
2021/11/23 04:46:53;;;;;;;;;28.75;25.00;;;;;4.94;59.28;102297.97;5001878;28;45225;-46
2021/11/23 04:49:22;;;;;;;;;31.75;23.75;;;;;4.94;59.46;102300.56;5001945;28;46074;-47
2021/11/23 04:51:48;;;;;;;;;27.00;23.00;;;;;4.93;59.03;102303.13;5001898;28;45298;-49
2021/11/23 04:54:13;;;;;;;;;29.75;25.00;;;;;4.93;59.38;102306.63;5001996;28;45373;-50
2021/11/23 04:56:38;;;;;;;;;25.00;23.00;;;;;4.91;59.20;102308.28;5001962;28;45348;-47
2021/11/23 04:59:04;;;;;;;;;27.75;23.25;;;;;4.91;59.49;102310.03;5000674;28;45324;-47
2021/11/23 05:01:29;;;;;;;;;25.00;20.00;;;;;4.90;59.23;102303.91;5001459;28;45280;-47
2021/11/23 05:03:55;;;;;;;;;23.50;20.50;;;;;4.90;59.13;102310.84;5001942;28;45288;-49
2021/11/23 05:06:21;;;;;;;;;27.00;23.75;;;;;4.86;59.16;102302.91;5001773;28;45233;-51
2021/11/23 05:08:46;;;;;;;;;22.00;19.75;;;;;4.88;59.04;102300.38;5001688;28;46787;-51
2021/11/23 05:11:11;;;;;;;;;24.25;23.00;;;;;4.87;59.36;102301.22;5001480;28;45225;-47
2021/11/23 05:13:37;;;;;;;;;45.75;38.75;;;;;4.85;59.23;102303.75;5001787;28;45934;-51
2021/11/23 05:16:04;;;;;;;;;28.00;25.25;;;;;4.85;58.99;102303.75;5001448;28;45325;-51
2021/11/23 05:18:29;;;;;;;;;24.00;18.75;;;;;4.83;59.03;102301.91;5001364;28;45244;-50
2021/11/23 05:20:55;;;;;;;;;24.25;21.75;;;;;4.83;59.51;102300.22;5001182;28;45456;-51
2021/11/23 05:23:20;;;;;;;;;26.50;23.75;;;;;4.83;59.01;102302.81;5000410;28;45457;-52
2021/11/23 05:25:45;;;;;;;;;20.50;19.00;;;;;4.84;59.27;102303.69;5001266;28;45694;-50
2021/11/23 05:28:11;;;;;;;;;21.50;18.75;;;;;4.83;59.26;102300.22;5001449;28;45367;-52
2021/11/23 05:30:36;;;;;;;;;24.25;20.00;;;;;4.83;59.36;102313.25;5001249;28;45302;-51
2021/11/23 05:33:01;;;;;;;;;20.00;18.00;;;;;4.83;59.03;102307.13;5001322;28;45367;-49
2021/11/23 05:35:27;;;;;;;;;18.25;17.25;;;;;4.82;59.01;102308.84;5001210;28;45308;-51
2021/11/23 05:37:52;;;;;;;;;20.25;17.50;;;;;4.80;59.28;102304.44;4999943;28;46963;-51
2021/11/23 05:40:17;;;;;;;;;27.00;20.50;;;;;4.81;59.13;102307.09;5000956;28;45487;-52
2021/11/23 05:42:43;;;;;;;;;18.00;18.00;;;;;4.81;59.23;102308.81;4996783;28;45384;-50
2021/11/23 05:45:12;;;;;;;;;23.50;21.00;;;;;4.79;59.43;102311.38;4998781;28;45333;-51
2021/11/23 05:47:37;;;;;;;;;18.25;17.50;;;;;4.78;59.14;102314.81;5000852;28;46483;-48
2021/11/23 05:50:05;;;;;;;;;22.75;19.25;;;;;4.77;59.08;102310.44;5000858;28;45217;-51
2021/11/23 05:52:30;;;;;;;;;19.25;16.50;;;;;4.78;58.98;102320.00;5001143;28;45390;-49
2021/11/23 05:54:56;;;;;;;;;19.50;18.25;;;;;4.77;59.30;102317.34;5000632;28;45544;-51
2021/11/23 05:57:21;;;;;;;;;20.25;17.50;;;;;4.76;59.08;102319.06;5000969;28;45425;-51
2021/11/23 05:59:47;;;;;;;;;23.75;20.75;;;;;4.76;59.15;102311.25;5000670;28;45461;-51
2021/11/23 06:02:13;;;;;;;;;18.00;16.25;;;;;4.73;59.08;102316.38;5000644;28;45433;-50
2021/11/23 06:04:38;;;;;;;;;20.25;17.50;;;;;4.75;59.02;102314.69;5000662;28;45394;-52
2021/11/23 06:07:04;;;;;;;;;23.50;18.75;;;;;4.75;59.23;102325.09;5000790;28;46275;-52
2021/11/23 06:09:29;;;;;;;;;18.75;17.75;;;;;4.75;59.16;102326.84;4999343;28;45388;-49
2021/11/23 06:11:54;;;;;;;;;22.25;20.75;;;;;4.73;59.06;102329.38;5001136;28;45488;-52
2021/11/23 06:14:20;;;;;;;;;21.75;17.75;;;;;4.76;59.04;102336.44;5000343;28;45296;-48
2021/11/23 06:16:46;;;;;;;;;20.00;17.50;;;;;4.76;59.04;102328.59;4999914;28;46245;-53
2021/11/23 06:19:13;;;;;;;;;19.25;16.00;;;;;4.74;58.90;102325.94;5015831;28;45672;-52
2021/11/23 06:21:40;;;;;;;;;22.00;20.00;;;;;4.75;58.84;102325.09;5000699;28;45254;-51
2021/11/23 06:24:07;;;;;;;;;21.00;16.75;;;;;4.74;58.95;102323.31;5000224;28;45278;-51
2021/11/23 06:26:33;;;;;;;;;18.50;17.50;;;;;4.75;59.19;102326.84;5000568;28;47146;-50
2021/11/23 06:28:58;;;;;;;;;20.50;18.50;;;;;4.75;58.99;102345.06;5000372;28;45281;-47
2021/11/23 06:31:23;;;;;;;;;23.00;17.75;;;;;4.75;59.02;102340.72;5000455;28;45269;-51
2021/11/23 06:33:53;;;;;;;;;18.50;17.00;;;;;4.72;59.04;102341.50;4999209;28;45596;-51
2021/11/23 06:36:18;;;;;;;;;22.50;19.75;;;;;4.74;58.94;102348.50;4999160;28;46104;-48
2021/11/23 06:38:45;;;;;;;;;19.50;18.00;;;;;4.75;59.33;102345.06;5000053;28;45174;-52
2021/11/23 06:41:10;;;;;;;;;19.25;17.25;;;;;4.75;58.88;102345.06;5000443;28;45403;-50
2021/11/23 06:43:36;;;;;;;;;22.00;18.00;;;;;4.75;58.90;102332.03;5000265;28;45343;-52
2021/11/23 06:46:01;;;;;;;;;15.00;13.25;;;;;4.75;58.70;102345.94;4999021;28;46136;-50
2021/11/23 06:48:26;;;;;;;;;16.25;16.25;;;;;4.75;59.12;102351.16;4999955;28;45363;-49
2021/11/23 06:50:53;;;;;;;;;18.25;17.50;;;;;4.76;59.20;102359.88;5000407;28;45316;-48
2021/11/23 06:53:18;;;;;;;;;25.75;19.25;;;;;4.76;58.86;102363.34;5000028;28;45490;-49
2021/11/23 06:55:44;;;;;;;;;22.75;18.00;;;;;4.75;58.89;102364.16;4999932;28;45427;-49
2021/11/23 06:58:10;;;;;;;;;20.75;18.50;;;;;4.74;59.29;102358.91;4999990;28;46511;-52
2021/11/23 07:00:35;;;;;;;;;21.00;18.25;;;;;4.74;59.11;102366.72;5000083;28;45263;-46
2021/11/23 07:03:01;;;;;;;;;19.25;14.75;;;;;4.72;58.97;102364.06;4998495;28;45299;-52
2021/11/23 07:05:27;;;;;;;;;24.50;18.50;;;;;4.70;59.02;102370.94;5000002;28;45245;-52
2021/11/23 07:07:52;;;;;;;;;23.00;19.00;;;;;4.71;59.24;102370.09;4999955;28;45199;-48
2021/11/23 07:10:18;;;;;;;;;24.25;19.25;;;;;4.68;58.92;102363.06;4999928;28;45245;-52
2021/11/23 07:12:43;;;;;;;;;21.00;19.50;;;;;4.69;59.06;102367.47;4999817;28;45307;-51
2021/11/23 07:15:10;;;;;;;;;23.75;19.75;;;;;4.69;58.96;102366.56;4999846;28;46568;-48
2021/11/23 07:17:36;;;;;;;;;21.50;16.50;;;;;4.68;59.03;102370.00;4999443;28;45340;-51
2021/11/23 07:20:03;;;;;;;;;20.75;17.50;;;;;4.68;58.98;102376.09;4999826;28;45443;-50
2021/11/23 07:22:28;;;;;;;;;15.75;15.50;;;;;4.69;59.09;102377.88;4999487;28;45411;-49
2021/11/23 07:24:53;;;;;;;;;21.00;18.75;;;;;4.68;59.23;102376.09;4999607;28;45377;-49
2021/11/23 07:27:19;;;;;;;;;25.25;24.00;;;;;4.65;58.97;102377.69;5000582;28;45298;-51
2021/11/23 07:29:45;;;;;;;;;27.75;25.00;;;;;4.69;59.17;102392.59;5003282;28;45298;-50
2021/11/23 07:32:11;;;;;;;;;21.50;20.75;;;;;4.67;59.10;102383.88;5002873;28;45371;-51
2021/11/23 07:34:38;;;;;;;;;19.25;17.50;;;;;4.67;58.95;102384.72;5003230;28;47065;-51
2021/11/23 07:37:03;;;;;;;;;19.50;17.50;;;;;4.70;58.87;102394.38;5002893;28;45290;-49
2021/11/23 07:39:29;;;;;;;;;18.50;16.50;;;;;4.71;59.01;102396.16;5001756;28;45226;-51
2021/11/23 07:41:54;;;;;;;;;13.50;12.50;;;;;4.70;59.22;102405.69;5002973;28;45439;-52
2021/11/23 07:44:20;;;;;;;;;19.75;17.50;;;;;4.68;58.78;102385.63;5003005;28;45394;-51
2021/11/23 07:46:45;;;;;;;;;19.25;16.75;;;;;4.69;58.94;102398.72;5002731;28;45302;-51
2021/11/23 07:49:10;;;;;;;;;17.75;16.75;;;;;4.71;58.94;102401.38;5003250;28;45352;-48
2021/11/23 07:51:36;;;;;;;;;20.75;18.00;;;;;4.71;59.05;102412.66;5002911;28;45275;-52
2021/11/23 07:54:02;;;;;;;;;16.00;14.00;;;;;4.74;59.17;102424.03;5001419;28;47481;-49
2021/11/23 07:56:28;;;;;;;;;17.50;14.75;;;;;4.75;58.98;102418.00;5002772;28;45370;-50
2021/11/23 07:58:54;;;;;;;;;15.50;13.50;;;;;4.76;58.83;102420.66;5002692;28;45288;-49
2021/11/23 08:01:19;;;;;;;;;14.25;13.00;;;;;4.79;59.08;102417.25;5002187;28;45340;-51
2021/11/23 08:03:45;;;;;;;;;12.75;11.50;;;;;4.80;58.87;102422.53;5002442;28;45393;-47
2021/11/23 08:06:11;;;;;;;;;19.75;13.75;;;;;4.82;58.72;102422.59;5002657;28;45446;-46
2021/11/23 08:08:37;;;;;;;;;19.00;17.00;;;;;4.84;58.97;102427.03;5002807;28;45224;-48
2021/11/23 08:11:03;;;;;;;;;8.00;8.00;;;;;4.87;58.89;102421.06;5002264;28;45237;-47
2021/11/23 08:13:29;;;;;;;;;16.00;13.25;;;;;4.91;58.98;102428.13;5002575;28;45312;-50
2021/11/23 08:15:54;;;;;;;;;18.75;17.25;;;;;4.90;58.95;102417.66;5002125;28;45577;-47
2021/11/23 08:18:20;;;;;;;;;15.00;12.00;;;;;4.98;59.08;102429.25;4997794;28;45396;-48
2021/11/23 08:20:46;;;;;;;;;13.00;13.00;;;;;5.02;58.88;102426.81;5000444;28;46518;-51
2021/11/23 08:23:12;;;;;;;;;13.00;12.00;;;;;5.07;59.04;102434.78;5001215;28;46207;-51
2021/11/23 08:25:40;;;;;;;;;13.50;13.00;;;;;5.13;59.04;102429.81;5001075;28;45305;-50
2021/11/23 08:28:06;;;;;;;;;13.00;12.00;;;;;5.17;59.04;102430.78;5001771;28;45252;-47
2021/11/23 08:30:32;;;;;;;;;14.00;11.75;;;;;5.21;58.99;102433.53;5000948;28;45888;-53
2021/11/23 08:32:58;;;;;;;;;12.50;12.50;;;;;5.30;58.83;102435.59;5001009;28;46194;-51
2021/11/23 08:35:23;;;;;;;;;12.25;10.00;;;;;5.37;58.96;102428.84;5000932;28;45442;-51
2021/11/23 08:37:50;;;;;;;;;14.75;12.00;;;;;5.41;58.91;102427.25;5001012;28;45497;-50
2021/11/23 08:40:15;;;;;;;;;14.00;11.50;;;;;5.51;58.78;102430.22;5000724;28;45414;-49
2021/11/23 08:42:41;;;;;;;;;11.00;9.25;;;;;5.59;58.86;102432.22;5001228;28;46151;-49
2021/11/23 08:45:11;;;;;;;;;13.50;13.00;;;;;5.67;58.76;102429.03;5001141;28;45711;-48
2021/11/23 08:47:37;;;;;;;;;11.50;9.50;;;;;5.75;58.93;102423.16;5001005;28;45267;-50
2021/11/23 08:50:07;;;;;;;;;12.25;10.75;;;;;5.84;58.83;102426.09;5000104;28;45169;-47
2021/11/23 08:52:33;;;;;;;;;9.75;9.00;;;;;5.91;58.99;102429.75;4999355;28;46981;-47
2021/11/23 08:54:59;;;;;;;;;9.75;9.00;;;;;6.01;58.95;102437.97;4999560;28;45399;-50
2021/11/23 08:57:24;;;;;;;;;13.00;9.00;;;;;6.11;58.94;102431.34;5000467;28;45272;-50
2021/11/23 08:59:51;;;;;;;;;10.25;10.00;;;;;6.21;58.83;102440.31;4999686;28;45355;-49
2021/11/23 09:02:17;;;;;;;;;12.75;10.00;;;;;6.31;58.70;102431.03;5000257;28;46460;-48
2021/11/23 09:04:42;;;;;;;;;8.50;8.50;;;;;6.40;58.67;102426.13;4993485;28;45156;-50
2021/11/23 09:07:12;;;;;;;;;9.75;8.50;;;;;6.52;58.69;102440.38;5001234;28;45293;-50
2021/11/23 09:09:42;;;;;;;;;12.75;10.00;;;;;6.62;58.85;102435.44;4992683;28;45537;-51
2021/11/23 09:12:09;;;;;;;;;9.00;8.75;;;;;6.73;58.70;102433.16;5000642;28;46249;-50
2021/11/23 09:14:37;;;;;;;;;14.00;10.75;;;;;6.85;58.62;102445.69;4998850;28;45304;-51
2021/11/23 09:17:07;;;;;;;;;13.00;8.50;;;;;6.98;58.83;102441.69;5000188;28;45428;-52
2021/11/23 09:19:34;;;;;;;;;11.75;11.50;;;;;7.10;58.56;102449.00;5000760;28;45339;-51
2021/11/23 09:21:59;;;;;;;;;8.75;6.00;;;;;7.26;58.68;102459.03;5000216;28;46492;-52
2021/11/23 09:24:25;;;;;;;;;8.00;6.25;;;;;7.37;58.53;102448.84;5000439;28;45381;-48
2021/11/23 09:26:51;;;;;;;;;10.25;8.00;;;;;7.55;58.56;102455.41;5000614;28;45365;-47
2021/11/23 09:29:18;;;;;;;;;10.25;9.00;;;;;7.71;58.37;102459.28;4999325;28;45458;-50
2021/11/23 09:31:44;;;;;;;;;6.00;5.25;;;;;7.85;58.56;102444.81;4999925;28;45996;-48
2021/11/23 09:34:11;;;;;;;;;7.75;6.00;;;;;8.02;58.43;102442.59;5000116;28;45304;-50
2021/11/23 09:36:37;;;;;;;;;3.25;3.25;;;;;8.18;58.40;102441.22;5000657;28;45273;-47
2021/11/23 09:39:03;;;;;;;;;10.00;4.50;;;;;8.36;58.17;102443.38;4999843;28;45934;-46
2021/11/23 09:41:31;;;;;;;;;8.25;6.25;;;;;8.52;58.21;102443.75;5000180;28;45363;-50
2021/11/23 09:43:56;;;;;;;;;4.00;4.00;;;;;8.69;58.09;102431.00;4999892;28;45346;-47
2021/11/23 09:46:22;;;;;;;;;4.00;3.50;;;;;8.83;58.34;102431.25;4998811;28;45462;-48
2021/11/23 09:48:47;;;;;;;;;4.00;4.00;;;;;9.02;58.01;102438.66;4999830;28;45383;-47
2021/11/23 09:51:15;;;;;;;;;5.25;5.25;;;;;9.18;58.03;102452.06;4999148;28;46277;-46
2021/11/23 09:53:41;;;;;;;;;6.25;6.25;;;;;9.33;57.75;102446.22;5000062;28;45232;-52
2021/11/23 09:56:06;;;;;;;;;6.25;5.75;;;;;9.48;57.99;102445.59;4998667;28;45465;-48
2021/11/23 09:58:32;;;;;;;;;10.75;7.75;;;;;9.57;57.81;102449.28;5000197;28;45677;-48
2021/11/23 10:01:04;;;;;;;;;8.50;6.75;;;;;9.70;57.82;102441.63;5014502;28;45459;-49
2021/11/23 10:03:33;;;;;;;;;6.00;4.75;;;;;9.82;57.67;102447.03;4998675;28;45368;-49
2021/11/23 10:06:13;;;;;;;;;8.50;5.75;;;;;9.92;57.81;102435.84;4998464;28;45418;-48
2021/11/23 10:08:41;;;;;;;;;5.00;5.00;;;;;10.04;57.51;102439.53;4999819;28;45472;-49
2021/11/23 10:11:08;;;;;;;;;7.75;7.75;;;;;10.16;57.54;102434.47;4981904;28;47085;-49
2021/11/23 10:13:50;;;;;;;;;4.75;4.25;;;;;10.25;57.56;102431.03;4999981;28;45396;-50
2021/11/23 10:16:17;;;;;;;;;5.25;4.75;;;;;10.39;57.66;102433.94;5007783;28;45256;-50
2021/11/23 10:18:43;;;;;;;;;4.25;4.25;;;;;10.50;57.56;102426.16;4999151;28;45414;-48
2021/11/23 10:21:12;;;;;;;;;4.50;4.00;;;;;10.61;57.55;102421.06;4999459;28;46213;-48
2021/11/23 10:23:45;;;;;;;;;5.75;5.00;;;;;10.74;57.13;102425.59;4999372;28;45435;-50
2021/11/23 10:26:18;;;;;;;;;4.00;4.00;;;;;10.87;57.36;102421.38;5000018;28;45477;-51
2021/11/23 10:28:49;;;;;;;;;4.75;4.00;;;;;11.00;57.45;102418.00;4996111;28;45619;-49
2021/11/23 10:31:16;;;;;;;;;3.00;3.00;;;;;11.12;57.31;102412.00;4999057;28;46312;-47
2021/11/23 10:33:43;;;;;;;;;4.25;4.25;;;;;11.25;57.01;102401.59;4998502;28;45426;-50
2021/11/23 10:36:19;;;;;;;;;3.75;3.00;;;;;11.36;57.07;102406.06;4999669;28;45547;-46
2021/11/23 10:38:44;;;;;;;;;4.00;4.00;;;;;11.48;56.87;102404.41;4999357;28;45269;-47
2021/11/23 10:41:13;;;;;;;;;4.00;2.25;;;;;11.61;57.01;102408.94;4999238;28;46124;-50
2021/11/23 10:43:40;;;;;;;;;3.00;3.00;;;;;11.75;56.94;102408.13;4999280;28;45456;-47
2021/11/23 10:46:27;;;;;;;;;3.00;3.00;;;;;11.85;56.91;102405.59;4998207;28;45356;-50
2021/11/23 10:48:58;;;;;;;;;3.00;1.25;;;;;11.98;56.62;102411.84;4993455;28;45595;-47
2021/11/23 10:51:25;;;;;;;;;3.25;2.25;;;;;12.07;56.67;102405.75;4997436;28;45484;-47
2021/11/23 10:54:10;;;;;;;;;3.75;3.00;;;;;12.21;56.59;102399.69;4997532;28;46233;-47
2021/11/23 10:56:54;;;;;;;;;3.25;3.25;;;;;12.37;56.90;102405.94;4998660;28;45334;-48
2021/11/23 10:59:20;;;;;;;;;3.00;3.00;;;;;12.49;56.81;102395.41;4998750;28;45421;-48
2021/11/23 11:01:45;;;;;;;;;3.75;2.75;;;;;12.62;56.43;102389.31;4998293;28;45390;-46
2021/11/23 11:04:14;;;;;;;;;3.00;2.75;;;;;12.76;56.56;102381.47;4999091;28;45241;-50
2021/11/23 11:06:41;;;;;;;;;3.75;3.75;;;;;12.92;56.60;102382.38;4991746;28;45566;-48
2021/11/23 11:09:07;;;;;;;;;4.00;4.00;;;;;13.08;56.41;102382.41;4998793;28;45391;-48
2021/11/23 11:11:35;;;;;;;;;5.50;4.25;;;;;13.23;56.27;102379.81;4997224;28;47089;-48
2021/11/23 11:14:01;;;;;;;;;4.25;4.25;;;;;13.39;56.54;102382.47;5013974;28;45387;-49
2021/11/23 11:16:27;;;;;;;;;2.00;2.00;;;;;13.52;56.44;102384.25;4980743;28;45674;-46